Time;durP1;ratioP1;P1;durP2;ratioP2;P2;SDS_P1;SDS_P2;PMS_P1;PMS_P2;Temp;Humidity;BMP_temperature;BMP_pressure;BME280_temperature;BME280_humidity;BME280_pressure;Samples;Min_cycle;Max_cycle;Signal;HPM_P1;HPM_P2
2023/05/16 00:00:12;;;;;;;6.47;5.85;;;19.90;55.30;;;;;;4985103;28;20192;-81
2023/05/16 00:02:39;;;;;;;6.20;5.60;;;19.80;55.20;;;;;;5000183;28;20217;-81
2023/05/16 00:05:09;;;;;;;6.63;5.95;;;19.90;55.20;;;;;;5000289;28;20239;-81
2023/05/16 00:07:36;;;;;;;6.38;5.43;;;19.80;55.10;;;;;;5000044;28;20271;-81
2023/05/16 00:10:03;;;;;;;6.22;5.63;;;19.80;55.10;;;;;;5000007;28;20197;-81
2023/05/16 00:12:31;;;;;;;7.10;5.38;;;19.80;55.10;;;;;;4999565;28;20216;-81
2023/05/16 00:14:58;;;;;;;6.40;5.80;;;19.80;55.10;;;;;;4999255;28;20685;-81
2023/05/16 00:17:27;;;;;;;6.05;5.50;;;19.80;55.30;;;;;;4999341;28;20200;-81
2023/05/16 00:19:57;;;;;;;6.57;5.95;;;19.80;55.10;;;;;;5000281;28;20561;-81
2023/05/16 00:22:24;;;;;;;5.80;5.20;;;19.80;55.20;;;;;;4999091;28;20223;-81
2023/05/16 00:24:51;;;;;;;6.85;5.00;;;19.80;55.00;;;;;;4998694;28;20192;-81
2023/05/16 00:27:18;;;;;;;6.07;5.47;;;19.80;55.20;;;;;;4998054;28;20212;-81
2023/05/16 00:29:45;;;;;;;6.13;5.43;;;19.70;54.90;;;;;;4998236;28;20209;-81
2023/05/16 00:32:12;;;;;;;5.82;5.28;;;19.70;55.30;;;;;;4997338;28;20213;-81
2023/05/16 00:34:41;;;;;;;6.05;5.45;;;19.70;55.00;;;;;;4996493;28;20578;-81
2023/05/16 00:37:08;;;;;;;6.40;5.47;;;19.70;55.00;;;;;;4996241;28;20219;-81
2023/05/16 00:39:37;;;;;;;5.63;5.13;;;19.70;55.00;;;;;;5013903;28;20239;-81
2023/05/16 00:42:04;;;;;;;7.30;5.40;;;19.60;55.50;;;;;;4997164;28;20275;-81
2023/05/16 00:44:31;;;;;;;6.63;5.28;;;19.70;55.00;;;;;;4996803;28;20239;-81
2023/05/16 00:46:59;;;;;;;7.53;5.78;;;19.70;55.20;;;;;;4996270;28;20224;-81
2023/05/16 00:49:27;;;;;;;6.88;6.18;;;19.70;55.10;;;;;;4996225;28;20200;-81
2023/05/16 00:51:55;;;;;;;6.30;5.63;;;19.70;55.10;;;;;;4980129;28;20252;-81
2023/05/16 00:54:24;;;;;;;6.03;5.45;;;19.70;55.30;;;;;;4996229;28;20197;-81
2023/05/16 00:56:52;;;;;;;6.68;5.70;;;19.60;55.00;;;;;;4980239;28;20270;-81
2023/05/16 00:59:19;;;;;;;6.57;5.57;;;19.70;55.20;;;;;;4996439;28;20291;-81
2023/05/16 01:01:46;;;;;;;6.88;6.10;;;19.60;55.30;;;;;;4997351;28;20227;-81
2023/05/16 01:04:12;;;;;;;6.15;5.53;;;19.60;55.30;;;;;;5001012;28;20201;-81
2023/05/16 01:06:40;;;;;;;6.15;5.50;;;19.60;55.20;;;;;;5002176;28;20632;-81
2023/05/16 01:09:09;;;;;;;5.57;5.07;;;19.60;55.30;;;;;;5001467;28;20197;-81
2023/05/16 01:11:39;;;;;;;6.07;5.47;;;19.60;55.30;;;;;;5000614;28;20224;-81
2023/05/16 01:14:10;;;;;;;7.03;5.20;;;19.60;55.40;;;;;;5000206;28;20204;-81
2023/05/16 01:16:43;;;;;;;5.88;4.95;;;19.60;55.40;;;;;;4999743;28;20223;-81
2023/05/16 01:19:15;;;;;;;5.75;5.25;;;19.60;56.20;;;;;;4999892;28;20193;-81
2023/05/16 01:21:45;;;;;;;5.75;5.20;;;19.60;55.50;;;;;;4999553;28;20590;-81
2023/05/16 01:24:22;;;;;;;6.35;4.78;;;19.50;55.30;;;;;;5000872;28;20193;-81
2023/05/16 01:26:51;;;;;;;6.07;5.57;;;19.60;55.50;;;;;;4999488;28;20216;-81
2023/05/16 01:29:18;;;;;;;5.63;5.07;;;19.50;55.50;;;;;;4983271;28;20201;-81
2023/05/16 01:31:45;;;;;;;6.47;5.88;;;19.50;55.40;;;;;;4999355;28;20220;-81
2023/05/16 01:34:12;;;;;;;5.93;5.43;;;19.50;55.40;;;;;;4999570;28;20211;-81
2023/05/16 01:36:43;;;;;;;6.55;5.70;;;19.50;55.30;;;;;;4999655;28;20188;-81
2023/05/16 01:39:17;;;;;;;6.78;5.30;;;19.50;55.50;;;;;;5000585;28;20185;-81
2023/05/16 01:41:49;;;;;;;5.88;5.35;;;19.50;55.50;;;;;;4999299;28;20232;-81
2023/05/16 01:44:19;;;;;;;5.88;5.38;;;19.40;55.90;;;;;;4999852;28;20185;-81
2023/05/16 01:46:47;;;;;;;6.03;5.50;;;19.50;55.50;;;;;;4999847;28;20208;-81
2023/05/16 01:49:16;;;;;;;6.07;5.47;;;19.50;55.50;;;;;;4999058;28;20196;-81
2023/05/16 01:51:45;;;;;;;6.38;5.78;;;19.40;55.50;;;;;;4998880;28;20287;-81
2023/05/16 01:54:13;;;;;;;6.88;6.18;;;19.40;55.40;;;;;;4999313;28;20207;-81
2023/05/16 01:56:40;;;;;;;6.30;5.70;;;19.40;55.30;;;;;;5000023;28;20244;-81
2023/05/16 01:59:07;;;;;;;5.40;4.90;;;19.40;55.50;;;;;;4999515;28;20228;-81
2023/05/16 02:01:35;;;;;;;6.72;5.35;;;19.40;55.40;;;;;;4999363;28;20291;-81
2023/05/16 02:04:02;;;;;;;5.63;5.13;;;19.40;55.50;;;;;;4999072;28;20204;-81
2023/05/16 02:06:29;;;;;;;5.60;5.05;;;19.40;55.40;;;;;;4998843;28;20215;-81
2023/05/16 02:08:56;;;;;;;6.07;5.47;;;19.40;55.50;;;;;;5001900;28;20200;-81
2023/05/16 02:11:24;;;;;;;6.40;5.75;;;19.40;55.40;;;;;;5000999;28;20228;-81
2023/05/16 02:13:51;;;;;;;7.10;5.43;;;19.40;55.40;;;;;;5039659;23;20727;-78
2023/05/16 02:16:18;;;;;;;6.00;5.50;;;19.40;55.50;;;;;;5002904;28;20275;-78
2023/05/16 02:18:47;;;;;;;6.05;5.45;;;19.40;55.50;;;;;;4985566;28;20254;-78
2023/05/16 02:21:14;;;;;;;5.90;5.30;;;19.40;55.40;;;;;;4986168;28;20224;-78
2023/05/16 02:23:41;;;;;;;5.95;5.43;;;19.40;55.50;;;;;;5001554;28;20192;-78
2023/05/16 02:26:08;;;;;;;6.35;5.75;;;19.40;55.60;;;;;;4984973;28;20201;-78
2023/05/16 02:28:35;;;;;;;6.20;5.60;;;19.40;55.50;;;;;;4999384;28;20204;-78
2023/05/16 02:31:03;;;;;;;6.20;5.70;;;19.40;55.40;;;;;;4998703;28;20251;-78
2023/05/16 02:33:30;;;;;;;7.38;6.47;;;19.40;55.50;;;;;;4999440;28;20295;-78
2023/05/16 02:35:59;;;;;;;6.63;6.03;;;19.40;55.50;;;;;;4998830;28;20598;-78
2023/05/16 02:38:26;;;;;;;6.55;5.68;;;19.40;55.40;;;;;;4999327;28;20220;-78
2023/05/16 02:40:55;;;;;;;8.35;5.70;;;19.40;55.50;;;;;;4998819;28;20197;-78
2023/05/16 02:43:22;;;;;;;6.97;6.28;;;19.40;55.50;;;;;;4998985;28;20200;-78
2023/05/16 02:45:49;;;;;;;7.40;6.70;;;19.40;55.60;;;;;;4998425;28;20223;-78
2023/05/16 02:48:17;;;;;;;6.65;6.05;;;19.40;55.50;;;;;;4998432;28;20212;-78
2023/05/16 02:50:44;;;;;;;7.78;7.03;;;19.40;55.70;;;;;;4998733;28;20203;-78
2023/05/16 02:53:13;;;;;;;7.22;6.53;;;19.40;55.50;;;;;;4998013;28;20217;-78
2023/05/16 02:55:40;;;;;;;7.22;6.53;;;19.30;55.30;;;;;;4998184;28;20205;-78
2023/05/16 02:58:07;;;;;;;7.28;6.47;;;19.30;55.40;;;;;;4997914;28;20247;-78
2023/05/16 03:00:34;;;;;;;7.35;6.68;;;19.40;55.60;;;;;;4999974;28;20203;-78
2023/05/16 03:03:01;;;;;;;8.25;6.93;;;19.30;55.40;;;;;;5000799;28;20221;-78
2023/05/16 03:05:29;;;;;;;7.65;6.90;;;19.30;55.40;;;;;;5018510;28;20239;-78
2023/05/16 03:07:56;;;;;;;7.47;6.78;;;19.40;55.50;;;;;;4998444;28;20235;-78
2023/05/16 03:10:24;;;;;;;6.97;6.28;;;19.30;55.40;;;;;;5015470;28;20205;-78
2023/05/16 03:12:52;;;;;;;6.82;6.22;;;19.40;55.60;;;;;;4981634;28;20594;-78
2023/05/16 03:15:18;;;;;;;7.15;6.45;;;19.40;55.60;;;;;;4997454;28;20244;-78
2023/05/16 03:17:46;;;;;;;7.03;6.13;;;19.30;55.60;;;;;;4997935;28;20197;-78
2023/05/16 03:20:13;;;;;;;7.13;6.53;;;19.40;55.70;;;;;;4997625;28;20250;-79
2023/05/16 03:22:40;;;;;;;6.68;6.07;;;19.40;56.20;;;;;;4997798;28;20219;-79
2023/05/16 03:25:08;;;;;;;6.72;6.13;;;19.40;55.70;;;;;;4998353;28;20200;-79
2023/05/16 03:27:36;;;;;;;6.28;5.68;;;19.50;55.60;;;;;;4998247;28;20223;-79
2023/05/16 03:30:03;;;;;;;6.60;6.00;;;19.50;55.50;;;;;;4999616;28;20196;-79
2023/05/16 03:32:31;;;;;;;7.35;6.55;;;19.60;55.50;;;;;;4998326;28;20641;-79
2023/05/16 03:34:58;;;;;;;7.90;7.10;;;19.60;55.30;;;;;;4997951;28;20674;-79
2023/05/16 03:37:25;;;;;;;7.95;7.13;;;19.60;55.10;;;;;;4997295;28;20677;-78
2023/05/16 03:39:52;;;;;;;7.82;7.05;;;19.60;55.10;;;;;;4997630;28;20212;-78
2023/05/16 03:42:19;;;;;;;8.52;7.47;;;19.70;55.00;;;;;;4981614;28;20251;-78
2023/05/16 03:44:48;;;;;;;8.75;7.55;;;19.70;55.10;;;;;;4997685;28;20224;-78
2023/05/16 03:47:14;;;;;;;8.02;7.22;;;19.70;55.00;;;;;;4981617;28;20629;-78
2023/05/16 03:49:42;;;;;;;8.30;7.50;;;19.70;54.80;;;;;;4998186;28;20204;-78
2023/05/16 03:52:09;;;;;;;7.32;6.63;;;19.80;54.60;;;;;;4997390;28;20228;-78
2023/05/16 03:54:36;;;;;;;8.23;7.32;;;19.80;54.80;;;;;;4998763;28;20201;-78
2023/05/16 03:57:03;;;;;;;8.70;7.65;;;19.80;54.70;;;;;;5002202;28;20271;-78
2023/05/16 03:59:30;;;;;;;9.38;8.48;;;19.80;54.80;;;;;;5001098;28;20196;-78
2023/05/16 04:01:59;;;;;;;7.57;6.88;;;19.80;55.00;;;;;;5000535;28;20217;-78
2023/05/16 04:04:26;;;;;;;8.48;7.68;;;19.80;54.60;;;;;;5018136;28;20227;-80
2023/05/16 04:06:54;;;;;;;8.75;7.85;;;19.80;54.40;;;;;;4984596;28;20266;-80
2023/05/16 04:09:21;;;;;;;9.75;8.70;;;19.80;54.40;;;;;;4999825;28;20228;-80
2023/05/16 04:11:48;;;;;;;8.93;8.02;;;19.90;54.50;;;;;;5000119;28;20224;-80
2023/05/16 04:14:15;;;;;;;9.23;8.23;;;19.80;54.30;;;;;;5000019;28;20227;-79
2023/05/16 04:16:42;;;;;;;8.95;8.05;;;19.80;54.20;;;;;;4999693;28;20205;-80
2023/05/16 04:19:10;;;;;;;9.45;8.00;;;19.80;54.20;;;;;;4999036;28;20254;-79
2023/05/16 04:21:38;;;;;;;8.85;7.95;;;19.90;54.30;;;;;;4998347;28;20216;-80
2023/05/16 04:24:06;;;;;;;9.07;7.97;;;19.80;54.30;;;;;;4983125;28;20254;-79
2023/05/16 04:26:33;;;;;;;9.40;8.30;;;19.80;54.20;;;;;;4998721;28;20205;-80
2023/05/16 04:29:00;;;;;;;10.02;9.02;;;19.80;54.40;;;;;;5005888;28;20224;-80
2023/05/16 04:31:27;;;;;;;9.00;8.10;;;19.80;54.20;;;;;;4997405;28;20220;-79
2023/05/16 04:33:54;;;;;;;9.63;8.63;;;19.80;54.20;;;;;;4997460;28;20193;-79
2023/05/16 04:36:23;;;;;;;9.45;8.45;;;19.80;54.30;;;;;;4997879;28;20663;-79
2023/05/16 04:38:50;;;;;;;10.05;9.05;;;19.80;54.20;;;;;;5002630;28;20644;-79
2023/05/16 04:41:17;;;;;;;13.27;11.88;;;19.80;54.40;;;;;;5001455;28;20216;-79
2023/05/16 04:43:44;;;;;;;10.25;9.25;;;19.80;54.40;;;;;;5001899;28;20200;-80
2023/05/16 04:46:11;;;;;;;10.02;9.02;;;19.80;54.30;;;;;;5001692;28;20204;-79
2023/05/16 04:48:38;;;;;;;10.25;9.20;;;19.80;54.40;;;;;;5002050;28;20216;-79
2023/05/16 04:51:05;;;;;;;10.48;9.48;;;19.80;54.40;;;;;;5006062;28;20250;-80
2023/05/16 04:53:34;;;;;;;9.00;8.20;;;19.80;54.40;;;;;;5006005;28;20228;-79
2023/05/16 04:56:01;;;;;;;10.57;9.48;;;19.80;54.40;;;;;;5004678;28;20207;-80
2023/05/16 04:58:29;;;;;;;10.90;9.85;;;19.80;54.40;;;;;;5004368;28;20693;-79
2023/05/16 05:00:56;;;;;;;10.85;9.60;;;19.80;54.60;;;;;;4987522;28;20211;-78
2023/05/16 05:03:23;;;;;;;12.05;10.73;;;19.80;54.40;;;;;;5003664;28;20687;-79
2023/05/16 05:05:50;;;;;;;10.90;9.80;;;19.80;54.40;;;;;;5002033;28;20223;-79
2023/05/16 05:08:18;;;;;;;13.77;12.10;;;19.80;54.50;;;;;;5000241;28;20691;-79
2023/05/16 05:10:46;;;;;;;13.35;11.95;;;19.80;54.60;;;;;;5000668;28;20204;-79
2023/05/16 05:13:14;;;;;;;11.18;10.07;;;19.80;54.50;;;;;;5000619;28;20264;-79
2023/05/16 05:15:41;;;;;;;12.98;11.65;;;19.80;54.50;;;;;;4999872;28;20200;-79
2023/05/16 05:18:08;;;;;;;12.88;11.48;;;19.80;54.60;;;;;;5000230;28;20189;-79
2023/05/16 05:20:35;;;;;;;12.57;10.38;;;19.80;54.40;;;;;;4999880;28;20239;-79
2023/05/16 05:23:02;;;;;;;12.90;11.60;;;19.80;54.60;;;;;;4999828;28;20262;-79
2023/05/16 05:25:32;;;;;;;11.90;10.43;;;19.80;54.60;;;;;;5000039;28;20287;-79
2023/05/16 05:28:01;;;;;;;13.77;12.38;;;19.80;54.40;;;;;;4999743;28;20295;-79
2023/05/16 05:30:28;;;;;;;14.70;13.13;;;19.80;54.40;;;;;;4999697;28;20255;-79
2023/05/16 05:32:55;;;;;;;14.50;12.35;;;19.80;54.40;;;;;;4999471;28;20224;-79
2023/05/16 05:35:22;;;;;;;14.88;11.95;;;19.80;54.40;;;;;;4983568;28;20567;-79
2023/05/16 05:37:49;;;;;;;12.48;11.18;;;19.80;54.40;;;;;;4999709;28;20199;-79
2023/05/16 05:40:16;;;;;;;14.93;12.52;;;19.80;54.40;;;;;;4999528;28;20625;-79
2023/05/16 05:42:43;;;;;;;13.75;11.52;;;19.80;54.40;;;;;;5000334;28;20231;-79
2023/05/16 05:45:12;;;;;;;12.15;10.70;;;19.80;55.00;;;;;;5002163;28;20714;-79
2023/05/16 05:47:39;;;;;;;12.77;11.48;;;19.90;54.50;;;;;;5001868;28;20700;-79
2023/05/16 05:50:07;;;;;;;13.38;11.98;;;19.90;54.50;;;;;;5002870;28;20220;-79
2023/05/16 05:52:35;;;;;;;12.60;11.00;;;19.90;54.50;;;;;;5001675;28;20307;-79
2023/05/16 05:55:02;;;;;;;12.60;10.43;;;19.80;54.30;;;;;;4985327;28;20201;-79
2023/05/16 05:57:29;;;;;;;13.45;11.40;;;19.80;54.30;;;;;;4999485;28;20193;-79
2023/05/16 05:59:56;;;;;;;12.05;10.85;;;19.90;54.20;;;;;;4999807;28;20208;-79
2023/05/16 06:02:24;;;;;;;13.88;11.70;;;19.80;54.30;;;;;;5017149;28;20212;-79
2023/05/16 06:04:51;;;;;;;11.55;10.35;;;19.80;54.20;;;;;;4999486;28;20189;-79
2023/05/16 06:07:18;;;;;;;8.57;7.75;;;19.80;54.40;;;;;;4999523;28;20207;-79
2023/05/16 06:09:45;;;;;;;10.65;9.27;;;19.90;54.50;;;;;;4999621;28;20251;-79
2023/05/16 06:12:12;;;;;;;10.07;9.02;;;19.90;54.50;;;;;;4998702;28;20223;-79
2023/05/16 06:14:39;;;;;;;10.00;9.00;;;19.90;54.40;;;;;;4999039;28;20189;-79
2023/05/16 06:17:06;;;;;;;8.70;7.82;;;19.90;54.30;;;;;;4998626;28;20567;-76
2023/05/16 06:19:35;;;;;;;9.75;8.48;;;20.00;54.20;;;;;;4998855;28;20197;-79
2023/05/16 06:22:01;;;;;;;10.60;9.45;;;20.00;54.20;;;;;;4998461;28;20212;-78
2023/05/16 06:24:31;;;;;;;9.27;8.32;;;20.10;54.10;;;;;;4998423;28;20220;-77
2023/05/16 06:26:58;;;;;;;9.55;8.65;;;20.10;54.00;;;;;;4998417;28;20578;-78
2023/05/16 06:29:25;;;;;;;10.38;9.38;;;20.10;53.90;;;;;;4998956;28;20220;-78
2023/05/16 06:31:52;;;;;;;9.77;8.77;;;20.20;53.80;;;;;;4999113;28;20223;-78
2023/05/16 06:34:22;;;;;;;10.00;9.00;;;20.20;53.70;;;;;;4998222;28;20201;-78
2023/05/16 06:36:51;;;;;;;9.43;8.52;;;20.30;53.70;;;;;;4998358;28;20204;-77
2023/05/16 06:39:18;;;;;;;10.52;9.43;;;20.20;53.50;;;;;;4982356;28;20202;-79
2023/05/16 06:41:46;;;;;;;9.48;8.50;;;20.30;53.50;;;;;;4998067;28;20220;-78
2023/05/16 06:44:16;;;;;;;8.80;8.00;;;20.40;53.40;;;;;;4998589;28;20193;-78
2023/05/16 06:46:43;;;;;;;9.57;8.68;;;20.40;53.40;;;;;;4998369;28;20715;-78
2023/05/16 06:49:10;;;;;;;9.45;8.05;;;20.40;53.30;;;;;;4998030;28;20701;-79
2023/05/16 06:51:37;;;;;;;9.68;8.68;;;20.40;53.10;;;;;;4998035;28;20221;-79
2023/05/16 06:54:06;;;;;;;9.80;8.80;;;20.50;53.10;;;;;;4997891;28;20211;-79
2023/05/16 06:56:33;;;;;;;8.50;7.57;;;20.50;53.00;;;;;;4999015;28;20275;-79
2023/05/16 06:59:01;;;;;;;9.63;7.95;;;20.50;52.90;;;;;;4997013;28;20574;-79
2023/05/16 07:01:28;;;;;;;8.82;8.00;;;20.60;53.00;;;;;;4997766;28;20220;-79
2023/05/16 07:03:55;;;;;;;10.52;9.30;;;20.60;52.90;;;;;;4997840;28;20203;-79
2023/05/16 07:06:25;;;;;;;7.88;7.18;;;20.60;52.70;;;;;;4997872;28;20207;-79
2023/05/16 07:08:52;;;;;;;8.65;7.85;;;20.60;52.60;;;;;;4998034;28;20221;-79
2023/05/16 07:11:21;;;;;;;8.52;7.72;;;20.60;52.50;;;;;;4998099;28;20216;-79
2023/05/16 07:13:48;;;;;;;8.70;7.90;;;20.60;52.50;;;;;;4997825;28;20205;-79
2023/05/16 07:16:15;;;;;;;7.97;7.22;;;20.60;52.50;;;;;;4998219;28;20307;-78
2023/05/16 07:18:42;;;;;;;8.10;7.40;;;20.70;52.40;;;;;;4998605;28;20563;-78
2023/05/16 07:21:10;;;;;;;9.43;8.52;;;20.70;52.30;;;;;;4997817;28;20229;-78
2023/05/16 07:23:37;;;;;;;6.68;6.07;;;20.80;52.50;;;;;;4998080;28;20202;-78
2023/05/16 07:26:04;;;;;;;7.88;7.07;;;20.80;52.20;;;;;;4997854;28;20226;-79
2023/05/16 07:28:32;;;;;;;7.47;6.75;;;20.90;52.30;;;;;;5014997;28;20216;-79
2023/05/16 07:30:59;;;;;;;7.72;6.95;;;20.90;52.20;;;;;;4997527;28;20192;-79
2023/05/16 07:33:27;;;;;;;8.10;7.30;;;21.00;52.00;;;;;;4997361;28;20680;-79
2023/05/16 07:35:54;;;;;;;6.60;6.00;;;21.10;51.90;;;;;;4997397;28;20201;-79
2023/05/16 07:38:21;;;;;;;6.97;6.28;;;21.10;51.70;;;;;;4997266;28;20197;-78
2023/05/16 07:40:48;;;;;;;6.93;6.32;;;21.20;51.70;;;;;;4997159;28;20204;-79
2023/05/16 07:43:16;;;;;;;7.82;7.03;;;21.20;51.60;;;;;;4997326;28;20207;-79
2023/05/16 07:45:44;;;;;;;7.13;6.43;;;21.20;51.50;;;;;;4997454;28;20575;-79
2023/05/16 07:48:12;;;;;;;7.43;6.72;;;21.10;51.40;;;;;;5006206;28;20223;-79
2023/05/16 07:50:40;;;;;;;6.82;6.13;;;21.10;51.40;;;;;;4983315;28;20207;-79
2023/05/16 07:53:06;;;;;;;6.32;5.72;;;21.10;51.40;;;;;;4998706;28;20283;-78
2023/05/16 07:55:34;;;;;;;7.03;6.32;;;21.10;51.40;;;;;;4999253;28;20656;-78
2023/05/16 07:58:01;;;;;;;7.38;6.70;;;21.10;51.50;;;;;;4997851;28;20201;-78
2023/05/16 08:00:28;;;;;;;6.82;6.13;;;21.10;51.60;;;;;;4998874;28;20298;-77
2023/05/16 08:02:57;;;;;;;6.40;5.80;;;21.10;51.50;;;;;;5000192;28;20248;-78
2023/05/16 08:05:24;;;;;;;5.95;5.45;;;21.10;51.50;;;;;;4998293;28;20228;-78
2023/05/16 08:07:51;;;;;;;6.00;5.40;;;21.10;51.60;;;;;;4997234;28;20571;-78
2023/05/16 08:10:18;;;;;;;6.50;5.90;;;21.20;52.20;;;;;;4997161;28;20189;-78
2023/05/16 08:12:47;;;;;;;5.65;5.15;;;21.10;52.30;;;;;;5014273;22;20687;-81
2023/05/16 08:15:14;;;;;;;6.90;5.00;;;21.20;52.50;;;;;;4999309;28;20203;-81
2023/05/16 08:17:41;;;;;;;6.03;4.95;;;21.20;52.60;;;;;;4999839;28;20205;-81
2023/05/16 08:20:10;;;;;;;6.53;5.93;;;21.20;52.50;;;;;;4997164;28;20670;-81
2023/05/16 08:22:38;;;;;;;5.85;5.28;;;21.20;52.60;;;;;;4997260;28;20231;-81
2023/05/16 08:25:06;;;;;;;7.47;5.20;;;21.20;52.60;;;;;;4998807;28;20247;-81
2023/05/16 08:27:34;;;;;;;5.85;5.32;;;21.20;52.60;;;;;;4997557;28;20231;-81
2023/05/16 08:30:00;;;;;;;6.10;4.97;;;21.20;52.20;;;;;;4997449;28;20216;-81
2023/05/16 08:32:28;;;;;;;7.95;6.47;;;21.20;51.80;;;;;;4997471;28;20557;-81
2023/05/16 08:34:55;;;;;;;5.70;5.03;;;21.20;52.30;;;;;;4997612;28;20651;-81
2023/05/16 08:37:23;;;;;;;6.50;5.07;;;21.20;51.90;;;;;;4997112;28;20209;-81
2023/05/16 08:39:50;;;;;;;8.63;5.00;;;21.20;51.90;;;;;;4997452;28;20188;-81
2023/05/16 08:42:17;;;;;;;5.28;4.85;;;21.30;51.90;;;;;;4997183;28;20221;-81
2023/05/16 08:44:44;;;;;;;5.20;4.78;;;21.30;52.10;;;;;;4997421;28;20219;-81
2023/05/16 08:47:12;;;;;;;5.32;4.82;;;21.20;52.00;;;;;;4981864;28;20193;-81
2023/05/16 08:49:40;;;;;;;6.43;4.90;;;21.20;52.00;;;;;;4997561;28;20220;-81
2023/05/16 08:52:08;;;;;;;5.15;4.72;;;21.20;51.80;;;;;;4997071;28;20217;-81
2023/05/16 08:54:37;;;;;;;5.85;5.35;;;21.20;51.70;;;;;;4997481;28;20658;-81
2023/05/16 08:57:05;;;;;;;5.85;5.25;;;21.20;51.60;;;;;;4996907;28;20200;-81
2023/05/16 08:59:32;;;;;;;6.13;5.53;;;21.30;51.70;;;;;;4996850;28;20276;-81
2023/05/16 09:01:59;;;;;;;6.43;5.20;;;21.30;51.30;;;;;;4997018;28;20673;-80
2023/05/16 09:04:26;;;;;;;6.22;5.32;;;21.30;51.60;;;;;;4997256;28;20197;-80
2023/05/16 09:06:53;;;;;;;7.00;6.07;;;21.30;51.40;;;;;;4996874;28;20663;-80
2023/05/16 09:09:20;;;;;;;9.80;6.35;;;21.20;51.40;;;;;;4996437;28;20213;-80
2023/05/16 09:11:49;;;;;;;6.57;5.70;;;21.20;51.30;;;;;;4996472;28;20765;-81
2023/05/16 09:14:16;;;;;;;6.20;5.60;;;21.20;51.40;;;;;;4996737;28;20212;-81
2023/05/16 09:16:45;;;;;;;6.90;6.30;;;21.20;51.50;;;;;;4997025;28;20201;-81
2023/05/16 09:19:13;;;;;;;6.35;5.75;;;21.20;51.50;;;;;;4996991;28;20636;-81
2023/05/16 09:21:40;;;;;;;6.95;6.20;;;21.20;51.70;;;;;;4996840;28;20220;-81
2023/05/16 09:24:08;;;;;;;6.95;6.35;;;21.20;51.90;;;;;;4999289;28;20205;-81
2023/05/16 09:26:36;;;;;;;7.35;6.75;;;21.20;51.90;;;;;;5000409;28;20207;-81
2023/05/16 09:29:10;;;;;;;6.80;6.15;;;21.20;52.20;;;;;;5000946;28;20220;-81
2023/05/16 09:31:37;;;;;;;7.82;7.03;;;21.10;52.10;;;;;;5017985;28;20247;-80
2023/05/16 09:34:05;;;;;;;6.40;5.78;;;21.10;52.10;;;;;;5000259;28;20664;-81
2023/05/16 09:36:32;;;;;;;7.40;6.57;;;21.10;52.40;;;;;;5000662;28;20672;-82
2023/05/16 09:38:59;;;;;;;8.35;7.05;;;21.10;52.20;;;;;;5000115;28;20192;-82
2023/05/16 09:41:26;;;;;;;7.38;6.68;;;21.10;52.30;;;;;;5000464;28;20209;-81
2023/05/16 09:43:53;;;;;;;8.32;7.22;;;21.10;52.20;;;;;;4999762;28;20201;-79
2023/05/16 09:46:24;;;;;;;8.88;7.53;;;21.10;52.40;;;;;;5000408;28;20208;-80
2023/05/16 09:48:52;;;;;;;7.47;6.78;;;21.10;52.40;;;;;;4999918;28;20266;-79
2023/05/16 09:51:21;;;;;;;7.75;7.03;;;21.20;52.60;;;;;;4999392;28;20224;-78
2023/05/16 09:53:49;;;;;;;7.65;6.85;;;21.10;52.40;;;;;;4999705;28;20193;-84
2023/05/16 09:56:16;;;;;;;8.93;7.47;;;21.10;52.50;;;;;;4999306;28;20204;-84
2023/05/16 09:58:44;;;;;;;7.65;6.95;;;21.10;52.50;;;;;;4999144;28;20655;-84
2023/05/16 10:01:11;;;;;;;7.55;6.85;;;21.10;52.40;;;;;;4998987;28;20217;-84
2023/05/16 10:03:41;;;;;;;9.50;7.45;;;21.10;52.50;;;;;;4998938;28;20230;-84
2023/05/16 10:06:08;;;;;;;8.77;7.95;;;21.10;51.90;;;;;;4999058;28;20209;-84
2023/05/16 10:08:36;;;;;;;8.80;7.90;;;21.10;51.30;;;;;;4998841;28;20291;-84
2023/05/16 10:11:04;;;;;;;8.65;7.35;;;21.10;51.90;;;;;;4998942;28;20200;-84
2023/05/16 10:13:33;;;;;;;8.75;7.80;;;21.10;51.70;;;;;;4999063;28;20244;-85
2023/05/16 10:16:00;;;;;;;8.77;7.88;;;21.10;51.60;;;;;;4999005;28;20196;-85
2023/05/16 10:18:31;;;;;;;7.45;6.75;;;21.10;51.50;;;;;;4998717;28;20197;-86
2023/05/16 10:21:04;;;;;;;7.93;7.13;;;21.10;51.80;;;;;;4998867;28;20210;-83
2023/05/16 10:23:32;;;;;;;7.47;6.78;;;21.10;51.70;;;;;;4999681;28;20287;-78
2023/05/16 10:26:00;;;;;;;8.95;8.05;;;21.10;51.80;;;;;;4983392;28;20279;-79
2023/05/16 10:28:28;;;;;;;8.70;7.80;;;21.00;51.80;;;;;;4999110;28;20197;-78
2023/05/16 10:30:55;;;;;;;9.40;7.25;;;21.10;51.40;;;;;;4998620;28;20243;-80
2023/05/16 10:33:25;;;;;;;8.00;7.20;;;21.00;51.70;;;;;;4998655;28;20197;-79
2023/05/16 10:35:52;;;;;;;8.00;7.20;;;21.00;51.80;;;;;;4998571;28;20205;-79
2023/05/16 10:38:20;;;;;;;7.18;6.47;;;21.00;51.90;;;;;;4999580;28;20205;-79
2023/05/16 10:40:48;;;;;;;8.90;7.57;;;21.00;51.80;;;;;;4999146;28;20197;-79
2023/05/16 10:43:23;;;;;;;9.10;8.13;;;21.00;51.90;;;;;;4998167;28;20217;-79
2023/05/16 10:45:54;;;;;;;8.57;7.78;;;21.00;51.70;;;;;;4998299;28;20204;-79
2023/05/16 10:48:28;;;;;;;8.85;7.93;;;21.00;51.70;;;;;;4999037;28;20268;-79
2023/05/16 10:53:23;;;;;;;11.70;10.50;;;21.00;51.50;;;;;;5020219;22;20311;-56
2023/05/16 10:56:05;;;;;;;11.57;10.38;;;21.10;51.60;;;;;;5014445;28;20313;-57
2023/05/16 11:01:15;;;;;;;13.55;11.65;;;21.00;51.00;;;;;;4994430;28;20217;-63
2023/05/16 11:04:00;;;;;;;14.88;11.50;;;20.90;50.50;;;;;;4993970;28;20197;-62
2023/05/16 11:06:28;;;;;;;13.77;11.48;;;20.90;50.60;;;;;;4994368;28;20240;-60
2023/05/16 11:09:08;;;;;;;12.95;11.30;;;20.90;50.60;;;;;;4994187;28;20263;-60
2023/05/16 11:11:45;;;;;;;15.35;11.20;;;20.80;50.80;;;;;;5069907;22;20239;-77
2023/05/16 11:14:19;;;;;;;13.55;10.90;;;20.80;50.80;;;;;;4978446;28;20205;-77
2023/05/16 11:16:49;;;;;;;13.68;10.65;;;20.80;51.00;;;;;;4978343;28;20198;-77
2023/05/16 11:19:31;;;;;;;12.50;10.90;;;20.80;51.40;;;;;;4978157;28;20662;-76
2023/05/16 11:22:08;;;;;;;19.27;12.65;;;20.80;51.30;;;;;;4978030;28;20242;-77
2023/05/16 11:24:37;;;;;;;21.00;13.10;;;20.70;51.30;;;;;;4977818;28;20233;-77
2023/05/16 11:27:04;;;;;;;16.80;11.60;;;20.70;51.30;;;;;;4977882;28;20194;-76
2023/05/16 11:29:32;;;;;;;16.60;10.43;;;20.70;51.40;;;;;;4978338;28;20608;-76
2023/05/16 11:31:59;;;;;;;11.98;10.13;;;20.70;51.50;;;;;;4977774;28;20217;-76
2023/05/16 11:34:27;;;;;;;14.07;10.38;;;20.60;51.10;;;;;;4978131;28;20202;-78
2023/05/16 11:36:55;;;;;;;11.45;9.20;;;20.60;51.30;;;;;;4977889;28;20224;-78
2023/05/16 11:39:23;;;;;;;10.02;8.05;;;20.60;51.50;;;;;;4977668;28;20204;-77
2023/05/16 11:41:52;;;;;;;12.20;8.10;;;20.60;51.80;;;;;;4977566;28;20224;-77
2023/05/16 11:44:18;;;;;;;9.70;8.23;;;20.60;51.90;;;;;;4978140;28;20368;-77
2023/05/16 11:46:46;;;;;;;9.77;7.22;;;20.70;52.60;;;;;;4977008;28;20734;-77
2023/05/16 11:49:13;;;;;;;7.80;7.00;;;20.60;52.50;;;;;;4961250;28;20208;-77
2023/05/16 11:51:40;;;;;;;7.45;6.68;;;20.60;52.50;;;;;;4977762;28;20223;-77
2023/05/16 11:54:08;;;;;;;7.82;5.93;;;20.60;52.50;;;;;;4977446;28;20189;-77
2023/05/16 11:56:36;;;;;;;8.07;6.93;;;20.60;52.50;;;;;;4977623;28;20568;-77
2023/05/16 11:59:05;;;;;;;8.35;6.63;;;20.60;52.40;;;;;;4977937;28;20207;-76
2023/05/16 12:01:33;;;;;;;6.75;6.05;;;20.60;52.50;;;;;;4977439;28;20225;-76
2023/05/16 12:04:00;;;;;;;7.22;6.03;;;20.60;52.50;;;;;;4977963;28;20666;-76
2023/05/16 12:06:28;;;;;;;7.88;6.53;;;20.60;52.70;;;;;;4978048;28;20583;-76
2023/05/16 12:08:55;;;;;;;9.60;5.82;;;20.60;52.70;;;;;;4994980;28;20189;-76
2023/05/16 12:11:23;;;;;;;7.47;6.25;;;20.60;52.90;;;;;;4977331;28;20221;-76
2023/05/16 12:13:50;;;;;;;6.60;6.00;;;20.60;53.10;;;;;;4978960;28;20201;-75
2023/05/16 12:16:18;;;;;;;6.68;5.97;;;20.50;53.10;;;;;;4977424;28;20197;-76
2023/05/16 12:18:45;;;;;;;6.57;5.40;;;20.60;53.00;;;;;;4980353;28;20206;-76
2023/05/16 12:21:12;;;;;;;6.93;5.95;;;20.60;53.10;;;;;;4997304;28;20232;-76
2023/05/16 12:23:39;;;;;;;6.82;5.65;;;20.50;52.80;;;;;;4977849;28;20255;-76
2023/05/16 12:26:07;;;;;;;6.68;6.07;;;20.60;52.90;;;;;;4977291;28;20198;-76
2023/05/16 12:28:34;;;;;;;7.10;5.78;;;20.60;52.90;;;;;;4977016;28;20288;-76
2023/05/16 12:31:01;;;;;;;8.90;6.00;;;20.60;53.00;;;;;;4976780;28;20228;-76
2023/05/16 12:33:30;;;;;;;7.00;5.60;;;20.50;53.00;;;;;;4976839;28;20193;-76
2023/05/16 12:35:57;;;;;;;6.15;5.40;;;20.60;53.90;;;;;;4976994;28;20209;-76
2023/05/16 12:38:25;;;;;;;6.95;5.70;;;20.60;53.10;;;;;;4976890;28;20644;-76
2023/05/16 12:40:57;;;;;;;7.65;5.38;;;20.50;53.30;;;;;;4976800;28;20711;-76
2023/05/16 12:43:24;;;;;;;5.88;5.00;;;20.50;53.20;;;;;;4976975;28;20198;-76
2023/05/16 12:45:52;;;;;;;6.65;5.30;;;20.60;53.30;;;;;;4994517;28;20189;-76
2023/05/16 12:48:19;;;;;;;7.75;6.00;;;20.60;53.30;;;;;;4977396;28;20189;-76
2023/05/16 12:50:48;;;;;;;7.40;5.40;;;20.60;53.30;;;;;;4976807;28;20597;-77